sensor_id;sensor_type;location;lat;lon;timestamp;temperature;humidity
18392;DHT22;9322;50.932;5.318;2024-01-25T00:01:11;9.50;1.40
18392;DHT22;9322;50.932;5.318;2024-01-25T00:03:37;9.40;1.40
18392;DHT22;9322;50.932;5.318;2024-01-25T00:06:04;9.30;1.40
18392;DHT22;9322;50.932;5.318;2024-01-25T00:08:30;9.30;1.40
18392;DHT22;9322;50.932;5.318;2024-01-25T00:10:56;9.30;1.40
18392;DHT22;9322;50.932;5.318;2024-01-25T00:13:22;9.40;1.40
18392;DHT22;9322;50.932;5.318;2024-01-25T00:15:47;9.50;1.40
18392;DHT22;9322;50.932;5.318;2024-01-25T00:18:13;9.40;1.40
18392;DHT22;9322;50.932;5.318;2024-01-25T00:20:39;9.30;1.40
18392;DHT22;9322;50.932;5.318;2024-01-25T00:23:04;9.40;1.40
18392;DHT22;9322;50.932;5.318;2024-01-25T00:25:30;9.20;1.40
18392;DHT22;9322;50.932;5.318;2024-01-25T00:27:56;9.20;1.40
18392;DHT22;9322;50.932;5.318;2024-01-25T00:30:21;9.20;1.40
18392;DHT22;9322;50.932;5.318;2024-01-25T00:32:48;9.20;1.40
18392;DHT22;9322;50.932;5.318;2024-01-25T00:35:14;9.10;1.40
18392;DHT22;9322;50.932;5.318;2024-01-25T00:37:40;9.00;1.40
18392;DHT22;9322;50.932;5.318;2024-01-25T00:40:07;9.00;1.40
18392;DHT22;9322;50.932;5.318;2024-01-25T00:42:40;9.00;1.40
18392;DHT22;9322;50.932;5.318;2024-01-25T00:45:07;8.80;1.40
18392;DHT22;9322;50.932;5.318;2024-01-25T00:47:33;8.70;1.40
18392;DHT22;9322;50.932;5.318;2024-01-25T00:49:59;8.60;1.40
18392;DHT22;9322;50.932;5.318;2024-01-25T00:52:25;8.70;1.40
18392;DHT22;9322;50.932;5.318;2024-01-25T00:54:51;8.70;1.40
18392;DHT22;9322;50.932;5.318;2024-01-25T00:57:17;8.70;1.40
18392;DHT22;9322;50.932;5.318;2024-01-25T00:59:43;8.80;1.40
18392;DHT22;9322;50.932;5.318;2024-01-25T01:02:12;8.80;1.40
18392;DHT22;9322;50.932;5.318;2024-01-25T01:04:39;8.90;1.40
18392;DHT22;9322;50.932;5.318;2024-01-25T01:07:06;8.90;1.40
18392;DHT22;9322;50.932;5.318;2024-01-25T01:09:31;8.80;1.40
18392;DHT22;9322;50.932;5.318;2024-01-25T01:11:57;8.80;1.40
18392;DHT22;9322;50.932;5.318;2024-01-25T01:14:23;8.90;1.40
18392;DHT22;9322;50.932;5.318;2024-01-25T01:16:49;8.90;1.40
18392;DHT22;9322;50.932;5.318;2024-01-25T01:19:16;8.70;1.40
18392;DHT22;9322;50.932;5.318;2024-01-25T01:21:42;8.70;1.40
18392;DHT22;9322;50.932;5.318;2024-01-25T01:24:10;8.60;1.40
18392;DHT22;9322;50.932;5.318;2024-01-25T01:26:36;8.70;1.40
18392;DHT22;9322;50.932;5.318;2024-01-25T01:29:02;8.60;1.40
18392;DHT22;9322;50.932;5.318;2024-01-25T01:31:28;8.50;1.40
18392;DHT22;9322;50.932;5.318;2024-01-25T01:33:54;8.40;1.40
18392;DHT22;9322;50.932;5.318;2024-01-25T01:36:20;8.40;1.40
18392;DHT22;9322;50.932;5.318;2024-01-25T01:38:46;8.30;1.40
18392;DHT22;9322;50.932;5.318;2024-01-25T01:41:12;8.30;1.40
18392;DHT22;9322;50.932;5.318;2024-01-25T01:43:40;8.20;1.40
18392;DHT22;9322;50.932;5.318;2024-01-25T01:46:11;8.20;1.40
18392;DHT22;9322;50.932;5.318;2024-01-25T01:48:41;8.10;1.40
18392;DHT22;9322;50.932;5.318;2024-01-25T01:51:07;8.10;1.40
18392;DHT22;9322;50.932;5.318;2024-01-25T01:53:34;8.00;1.40
18392;DHT22;9322;50.932;5.318;2024-01-25T01:56:00;8.00;1.40
18392;DHT22;9322;50.932;5.318;2024-01-25T01:58:27;8.10;1.40
18392;DHT22;9322;50.932;5.318;2024-01-25T02:00:55;8.00;1.40
18392;DHT22;9322;50.932;5.318;2024-01-25T02:03:21;7.90;1.40
18392;DHT22;9322;50.932;5.318;2024-01-25T02:05:47;8.00;1.40
18392;DHT22;9322;50.932;5.318;2024-01-25T02:08:13;8.00;1.40
18392;DHT22;9322;50.932;5.318;2024-01-25T02:10:39;8.00;1.40
18392;DHT22;9322;50.932;5.318;2024-01-25T02:13:04;7.80;1.40
18392;DHT22;9322;50.932;5.318;2024-01-25T02:15:30;7.70;1.40
18392;DHT22;9322;50.932;5.318;2024-01-25T02:17:56;7.70;1.40
18392;DHT22;9322;50.932;5.318;2024-01-25T02:20:21;7.70;1.40
18392;DHT22;9322;50.932;5.318;2024-01-25T02:22:47;7.60;1.40
18392;DHT22;9322;50.932;5.318;2024-01-25T02:25:13;7.60;1.40
18392;DHT22;9322;50.932;5.318;2024-01-25T02:27:39;7.60;1.40
18392;DHT22;9322;50.932;5.318;2024-01-25T02:30:08;7.60;1.40
18392;DHT22;9322;50.932;5.318;2024-01-25T02:32:34;7.70;1.40
18392;DHT22;9322;50.932;5.318;2024-01-25T02:35:00;7.60;1.40
18392;DHT22;9322;50.932;5.318;2024-01-25T02:37:26;7.60;1.40
18392;DHT22;9322;50.932;5.318;2024-01-25T02:39:52;7.50;1.40
18392;DHT22;9322;50.932;5.318;2024-01-25T02:42:18;7.40;1.40
18392;DHT22;9322;50.932;5.318;2024-01-25T02:44:44;7.30;1.40
18392;DHT22;9322;50.932;5.318;2024-01-25T02:47:10;7.30;1.40
18392;DHT22;9322;50.932;5.318;2024-01-25T02:49:36;7.30;1.40
18392;DHT22;9322;50.932;5.318;2024-01-25T02:52:02;7.10;1.40
18392;DHT22;9322;50.932;5.318;2024-01-25T02:54:27;7.10;1.40
18392;DHT22;9322;50.932;5.318;2024-01-25T02:56:53;7.10;1.40
18392;DHT22;9322;50.932;5.318;2024-01-25T02:59:19;7.00;1.40
18392;DHT22;9322;50.932;5.318;2024-01-25T03:01:46;7.00;1.40
18392;DHT22;9322;50.932;5.318;2024-01-25T03:04:12;6.90;1.40
18392;DHT22;9322;50.932;5.318;2024-01-25T03:06:38;6.90;1.40
18392;DHT22;9322;50.932;5.318;2024-01-25T03:09:04;6.90;1.40
18392;DHT22;9322;50.932;5.318;2024-01-25T03:11:32;6.80;1.40
18392;DHT22;9322;50.932;5.318;2024-01-25T03:13:58;6.70;1.40
18392;DHT22;9322;50.932;5.318;2024-01-25T03:16:23;6.60;1.40
18392;DHT22;9322;50.932;5.318;2024-01-25T03:18:49;6.60;1.40
18392;DHT22;9322;50.932;5.318;2024-01-25T03:21:15;6.60;1.40
18392;DHT22;9322;50.932;5.318;2024-01-25T03:23:40;6.50;1.40
18392;DHT22;9322;50.932;5.318;2024-01-25T03:26:06;6.50;1.40
18392;DHT22;9322;50.932;5.318;2024-01-25T03:28:34;6.40;1.40
18392;DHT22;9322;50.932;5.318;2024-01-25T03:31:01;6.40;1.40
18392;DHT22;9322;50.932;5.318;2024-01-25T03:33:27;6.40;1.40
18392;DHT22;9322;50.932;5.318;2024-01-25T03:35:53;6.30;1.40
18392;DHT22;9322;50.932;5.318;2024-01-25T03:38:19;6.30;1.40
18392;DHT22;9322;50.932;5.318;2024-01-25T03:40:45;6.30;1.40
18392;DHT22;9322;50.932;5.318;2024-01-25T03:43:10;6.20;1.40
18392;DHT22;9322;50.932;5.318;2024-01-25T03:45:36;6.20;1.40
18392;DHT22;9322;50.932;5.318;2024-01-25T03:48:02;6.20;1.40
18392;DHT22;9322;50.932;5.318;2024-01-25T03:50:28;6.20;1.40
18392;DHT22;9322;50.932;5.318;2024-01-25T03:52:53;6.30;1.40
18392;DHT22;9322;50.932;5.318;2024-01-25T03:55:19;6.40;1.40
18392;DHT22;9322;50.932;5.318;2024-01-25T03:57:45;6.20;1.40
18392;DHT22;9322;50.932;5.318;2024-01-25T04:00:11;6.20;1.40
18392;DHT22;9322;50.932;5.318;2024-01-25T04:02:37;6.40;1.40
18392;DHT22;9322;50.932;5.318;2024-01-25T04:05:03;6.40;1.40
18392;DHT22;9322;50.932;5.318;2024-01-25T04:07:29;6.30;1.40
18392;DHT22;9322;50.932;5.318;2024-01-25T04:09:55;6.20;1.40
18392;DHT22;9322;50.932;5.318;2024-01-25T04:12:20;6.20;1.40
18392;DHT22;9322;50.932;5.318;2024-01-25T04:14:46;6.30;1.40
18392;DHT22;9322;50.932;5.318;2024-01-25T04:17:12;6.10;1.40
18392;DHT22;9322;50.932;5.318;2024-01-25T04:19:38;6.10;1.40
18392;DHT22;9322;50.932;5.318;2024-01-25T04:22:03;6.10;1.40
18392;DHT22;9322;50.932;5.318;2024-01-25T04:24:29;6.10;1.40
18392;DHT22;9322;50.932;5.318;2024-01-25T04:26:55;6.00;1.40
18392;DHT22;9322;50.932;5.318;2024-01-25T04:29:20;5.90;1.40
18392;DHT22;9322;50.932;5.318;2024-01-25T04:31:46;5.80;1.40
18392;DHT22;9322;50.932;5.318;2024-01-25T04:34:14;6.00;1.40
18392;DHT22;9322;50.932;5.318;2024-01-25T04:36:40;6.00;1.40
18392;DHT22;9322;50.932;5.318;2024-01-25T04:39:06;6.10;1.40
18392;DHT22;9322;50.932;5.318;2024-01-25T04:41:32;6.00;1.40
18392;DHT22;9322;50.932;5.318;2024-01-25T04:43:57;5.90;1.40
18392;DHT22;9322;50.932;5.318;2024-01-25T04:46:23;5.90;1.40
18392;DHT22;9322;50.932;5.318;2024-01-25T04:48:49;6.00;1.40
18392;DHT22;9322;50.932;5.318;2024-01-25T04:51:17;6.00;1.40
18392;DHT22;9322;50.932;5.318;2024-01-25T04:53:43;5.90;1.40
18392;DHT22;9322;50.932;5.318;2024-01-25T04:56:09;5.90;1.40
18392;DHT22;9322;50.932;5.318;2024-01-25T04:58:35;5.80;1.40
18392;DHT22;9322;50.932;5.318;2024-01-25T05:01:01;5.80;1.40
18392;DHT22;9322;50.932;5.318;2024-01-25T05:03:26;5.70;1.40
18392;DHT22;9322;50.932;5.318;2024-01-25T05:05:52;5.70;1.40
18392;DHT22;9322;50.932;5.318;2024-01-25T05:08:18;5.70;1.40
18392;DHT22;9322;50.932;5.318;2024-01-25T05:10:43;5.70;1.40
18392;DHT22;9322;50.932;5.318;2024-01-25T05:13:09;5.90;1.40
18392;DHT22;9322;50.932;5.318;2024-01-25T05:15:35;5.90;1.40
18392;DHT22;9322;50.932;5.318;2024-01-25T05:18:02;5.70;1.40
18392;DHT22;9322;50.932;5.318;2024-01-25T05:20:27;5.70;1.40
18392;DHT22;9322;50.932;5.318;2024-01-25T05:23:04;5.60;1.40
18392;DHT22;9322;50.932;5.318;2024-01-25T05:25:31;5.70;1.40
18392;DHT22;9322;50.932;5.318;2024-01-25T05:27:57;5.70;1.40
18392;DHT22;9322;50.932;5.318;2024-01-25T05:30:24;5.70;1.40
18392;DHT22;9322;50.932;5.318;2024-01-25T05:32:50;5.60;1.40
18392;DHT22;9322;50.932;5.318;2024-01-25T05:35:19;5.70;1.40
18392;DHT22;9322;50.932;5.318;2024-01-25T05:37:44;5.80;1.40
18392;DHT22;9322;50.932;5.318;2024-01-25T05:40:11;5.90;1.40
18392;DHT22;9322;50.932;5.318;2024-01-25T05:42:37;5.80;1.40
18392;DHT22;9322;50.932;5.318;2024-01-25T05:45:03;5.80;1.40
18392;DHT22;9322;50.932;5.318;2024-01-25T05:47:29;5.70;1.40
18392;DHT22;9322;50.932;5.318;2024-01-25T05:49:56;5.60;1.40
18392;DHT22;9322;50.932;5.318;2024-01-25T05:52:22;5.70;1.40
18392;DHT22;9322;50.932;5.318;2024-01-25T05:54:49;5.70;1.40
18392;DHT22;9322;50.932;5.318;2024-01-25T05:57:15;5.60;1.40
18392;DHT22;9322;50.932;5.318;2024-01-25T05:59:42;5.70;1.40
18392;DHT22;9322;50.932;5.318;2024-01-25T06:02:08;5.70;1.40
18392;DHT22;9322;50.932;5.318;2024-01-25T06:04:34;5.70;1.40
18392;DHT22;9322;50.932;5.318;2024-01-25T06:07:00;5.60;1.40
18392;DHT22;9322;50.932;5.318;2024-01-25T06:09:26;5.40;1.40
18392;DHT22;9322;50.932;5.318;2024-01-25T06:11:51;5.40;1.40
18392;DHT22;9322;50.932;5.318;2024-01-25T06:14:17;5.60;1.40
18392;DHT22;9322;50.932;5.318;2024-01-25T06:16:43;5.60;1.40
18392;DHT22;9322;50.932;5.318;2024-01-25T06:19:10;5.50;1.40
18392;DHT22;9322;50.932;5.318;2024-01-25T06:21:36;5.40;1.40
18392;DHT22;9322;50.932;5.318;2024-01-25T06:24:04;5.50;1.40
18392;DHT22;9322;50.932;5.318;2024-01-25T06:26:30;5.50;1.40
18392;DHT22;9322;50.932;5.318;2024-01-25T06:28:56;5.40;1.40
18392;DHT22;9322;50.932;5.318;2024-01-25T06:31:23;5.50;1.40
18392;DHT22;9322;50.932;5.318;2024-01-25T06:33:49;5.40;1.40
18392;DHT22;9322;50.932;5.318;2024-01-25T06:36:16;5.30;1.40
18392;DHT22;9322;50.932;5.318;2024-01-25T06:38:42;5.30;1.40
18392;DHT22;9322;50.932;5.318;2024-01-25T06:41:11;5.30;1.40
18392;DHT22;9322;50.932;5.318;2024-01-25T06:43:37;5.40;1.40
18392;DHT22;9322;50.932;5.318;2024-01-25T06:46:02;5.40;1.40
18392;DHT22;9322;50.932;5.318;2024-01-25T06:48:28;5.40;1.40
18392;DHT22;9322;50.932;5.318;2024-01-25T06:50:54;5.40;1.40
18392;DHT22;9322;50.932;5.318;2024-01-25T06:53:20;5.40;1.40
18392;DHT22;9322;50.932;5.318;2024-01-25T06:55:46;5.40;1.40
18392;DHT22;9322;50.932;5.318;2024-01-25T06:58:12;5.30;1.40
18392;DHT22;9322;50.932;5.318;2024-01-25T07:00:38;5.20;1.40
18392;DHT22;9322;50.932;5.318;2024-01-25T07:03:05;5.50;1.40
18392;DHT22;9322;50.932;5.318;2024-01-25T07:05:31;5.30;1.40
18392;DHT22;9322;50.932;5.318;2024-01-25T07:07:59;5.30;1.40
18392;DHT22;9322;50.932;5.318;2024-01-25T07:10:25;5.30;1.40
18392;DHT22;9322;50.932;5.318;2024-01-25T07:12:51;5.30;1.40
18392;DHT22;9322;50.932;5.318;2024-01-25T07:15:17;5.30;1.40
18392;DHT22;9322;50.932;5.318;2024-01-25T07:17:44;5.30;1.40
18392;DHT22;9322;50.932;5.318;2024-01-25T07:20:10;5.30;1.40
18392;DHT22;9322;50.932;5.318;2024-01-25T07:22:36;5.40;1.40
18392;DHT22;9322;50.932;5.318;2024-01-25T07:25:02;5.40;1.40
18392;DHT22;9322;50.932;5.318;2024-01-25T07:27:28;5.40;1.40
18392;DHT22;9322;50.932;5.318;2024-01-25T07:29:53;5.40;1.40
18392;DHT22;9322;50.932;5.318;2024-01-25T07:32:19;5.50;1.40
18392;DHT22;9322;50.932;5.318;2024-01-25T07:34:45;5.30;1.40
18392;DHT22;9322;50.932;5.318;2024-01-25T07:37:12;5.40;1.40
18392;DHT22;9322;50.932;5.318;2024-01-25T07:39:38;5.40;1.40
18392;DHT22;9322;50.932;5.318;2024-01-25T07:42:03;5.40;1.40
18392;DHT22;9322;50.932;5.318;2024-01-25T07:44:29;5.40;1.40
18392;DHT22;9322;50.932;5.318;2024-01-25T07:46:55;5.50;1.40
18392;DHT22;9322;50.932;5.318;2024-01-25T07:49:21;5.60;1.40
18392;DHT22;9322;50.932;5.318;2024-01-25T07:51:46;5.80;1.40
18392;DHT22;9322;50.932;5.318;2024-01-25T07:54:12;5.80;1.40
18392;DHT22;9322;50.932;5.318;2024-01-25T07:56:39;5.90;1.40
18392;DHT22;9322;50.932;5.318;2024-01-25T07:59:05;6.00;1.40
18392;DHT22;9322;50.932;5.318;2024-01-25T08:01:30;6.00;1.40
18392;DHT22;9322;50.932;5.318;2024-01-25T08:03:56;6.20;1.40
18392;DHT22;9322;50.932;5.318;2024-01-25T08:06:22;6.40;1.40
18392;DHT22;9322;50.932;5.318;2024-01-25T08:08:48;6.50;1.40
18392;DHT22;9322;50.932;5.318;2024-01-25T08:11:14;6.60;1.40
18392;DHT22;9322;50.932;5.318;2024-01-25T08:13:43;6.80;1.40
18392;DHT22;9322;50.932;5.318;2024-01-25T08:16:10;6.70;1.40
18392;DHT22;9322;50.932;5.318;2024-01-25T08:18:36;6.90;1.40
18392;DHT22;9322;50.932;5.318;2024-01-25T08:21:02;7.10;1.40
18392;DHT22;9322;50.932;5.318;2024-01-25T08:23:28;7.20;1.40
18392;DHT22;9322;50.932;5.318;2024-01-25T08:25:53;7.20;1.40
18392;DHT22;9322;50.932;5.318;2024-01-25T08:28:19;7.20;1.40
18392;DHT22;9322;50.932;5.318;2024-01-25T08:30:45;7.40;1.40
18392;DHT22;9322;50.932;5.318;2024-01-25T08:33:11;7.50;1.40
18392;DHT22;9322;50.932;5.318;2024-01-25T08:35:36;7.50;1.40
18392;DHT22;9322;50.932;5.318;2024-01-25T08:38:02;7.70;1.40
18392;DHT22;9322;50.932;5.318;2024-01-25T08:40:28;7.90;1.40
18392;DHT22;9322;50.932;5.318;2024-01-25T08:42:54;7.70;1.40
18392;DHT22;9322;50.932;5.318;2024-01-25T08:45:20;7.40;1.40
18392;DHT22;9322;50.932;5.318;2024-01-25T08:47:45;7.00;1.40
18392;DHT22;9322;50.932;5.318;2024-01-25T08:50:12;6.90;1.40
18392;DHT22;9322;50.932;5.318;2024-01-25T08:52:38;6.80;1.40
18392;DHT22;9322;50.932;5.318;2024-01-25T08:55:06;6.80;1.40
18392;DHT22;9322;50.932;5.318;2024-01-25T08:57:32;6.90;1.40
18392;DHT22;9322;50.932;5.318;2024-01-25T08:59:58;6.90;1.40
18392;DHT22;9322;50.932;5.318;2024-01-25T09:02:26;6.90;1.40
18392;DHT22;9322;50.932;5.318;2024-01-25T09:04:55;6.80;1.40
18392;DHT22;9322;50.932;5.318;2024-01-25T09:07:21;6.60;1.40
18392;DHT22;9322;50.932;5.318;2024-01-25T09:09:47;6.60;1.40
18392;DHT22;9322;50.932;5.318;2024-01-25T09:12:13;6.50;1.40
18392;DHT22;9322;50.932;5.318;2024-01-25T09:14:39;6.50;1.40
18392;DHT22;9322;50.932;5.318;2024-01-25T09:17:05;6.50;1.40
18392;DHT22;9322;50.932;5.318;2024-01-25T09:19:31;6.50;1.40
18392;DHT22;9322;50.932;5.318;2024-01-25T09:21:57;6.50;1.40
18392;DHT22;9322;50.932;5.318;2024-01-25T09:24:26;6.60;1.40
18392;DHT22;9322;50.932;5.318;2024-01-25T09:26:52;6.70;1.40
18392;DHT22;9322;50.932;5.318;2024-01-25T09:29:17;6.70;1.40
18392;DHT22;9322;50.932;5.318;2024-01-25T09:31:43;6.50;1.40
18392;DHT22;9322;50.932;5.318;2024-01-25T09:34:09;6.40;1.40
18392;DHT22;9322;50.932;5.318;2024-01-25T09:36:34;6.60;1.40
18392;DHT22;9322;50.932;5.318;2024-01-25T09:39:00;6.60;1.40
18392;DHT22;9322;50.932;5.318;2024-01-25T09:41:26;6.80;1.40
18392;DHT22;9322;50.932;5.318;2024-01-25T09:43:52;6.80;1.40
18392;DHT22;9322;50.932;5.318;2024-01-25T09:46:19;6.80;1.40
18392;DHT22;9322;50.932;5.318;2024-01-25T09:48:45;6.90;1.40
18392;DHT22;9322;50.932;5.318;2024-01-25T09:51:12;6.90;1.40
18392;DHT22;9322;50.932;5.318;2024-01-25T09:53:40;7.00;1.40
18392;DHT22;9322;50.932;5.318;2024-01-25T09:56:10;7.10;1.40
18392;DHT22;9322;50.932;5.318;2024-01-25T09:58:44;7.20;1.40
18392;DHT22;9322;50.932;5.318;2024-01-25T10:01:14;7.40;1.40
18392;DHT22;9322;50.932;5.318;2024-01-25T10:03:44;7.30;1.40
18392;DHT22;9322;50.932;5.318;2024-01-25T10:06:11;7.20;1.40
18392;DHT22;9322;50.932;5.318;2024-01-25T10:08:37;7.20;1.40
18392;DHT22;9322;50.932;5.318;2024-01-25T10:11:03;7.30;1.40
18392;DHT22;9322;50.932;5.318;2024-01-25T10:13:29;7.20;1.40
18392;DHT22;9322;50.932;5.318;2024-01-25T10:15:55;7.30;1.40
18392;DHT22;9322;50.932;5.318;2024-01-25T10:18:27;7.50;1.40
18392;DHT22;9322;50.932;5.318;2024-01-25T10:20:53;7.50;1.40
18392;DHT22;9322;50.932;5.318;2024-01-25T10:23:20;7.60;1.40
18392;DHT22;9322;50.932;5.318;2024-01-25T10:25:46;7.50;1.40
18392;DHT22;9322;50.932;5.318;2024-01-25T10:28:12;7.50;1.40
18392;DHT22;9322;50.932;5.318;2024-01-25T10:30:38;7.60;1.40
18392;DHT22;9322;50.932;5.318;2024-01-25T10:33:04;7.70;1.40
18392;DHT22;9322;50.932;5.318;2024-01-25T10:35:31;7.70;1.40
18392;DHT22;9322;50.932;5.318;2024-01-25T10:37:57;7.60;1.40
18392;DHT22;9322;50.932;5.318;2024-01-25T10:40:23;7.70;1.40
18392;DHT22;9322;50.932;5.318;2024-01-25T10:42:50;7.80;1.40
18392;DHT22;9322;50.932;5.318;2024-01-25T10:45:16;7.80;1.40
18392;DHT22;9322;50.932;5.318;2024-01-25T10:47:41;7.70;1.40
18392;DHT22;9322;50.932;5.318;2024-01-25T10:50:08;7.70;1.40
18392;DHT22;9322;50.932;5.318;2024-01-25T10:52:36;7.50;1.40
18392;DHT22;9322;50.932;5.318;2024-01-25T10:55:03;7.50;1.40
18392;DHT22;9322;50.932;5.318;2024-01-25T10:57:41;7.60;1.40
18392;DHT22;9322;50.932;5.318;2024-01-25T11:00:10;7.80;1.40
18392;DHT22;9322;50.932;5.318;2024-01-25T11:02:38;7.70;1.40
18392;DHT22;9322;50.932;5.318;2024-01-25T11:05:23;7.70;1.40
18392;DHT22;9322;50.932;5.318;2024-01-25T11:07:49;7.90;1.40
18392;DHT22;9322;50.932;5.318;2024-01-25T11:10:17;8.10;1.40
18392;DHT22;9322;50.932;5.318;2024-01-25T11:12:58;8.20;1.40
18392;DHT22;9322;50.932;5.318;2024-01-25T11:15:30;8.30;1.40
18392;DHT22;9322;50.932;5.318;2024-01-25T11:17:56;8.60;1.40
18392;DHT22;9322;50.932;5.318;2024-01-25T11:20:27;8.90;1.40
18392;DHT22;9322;50.932;5.318;2024-01-25T11:23:04;9.10;1.40
18392;DHT22;9322;50.932;5.318;2024-01-25T11:25:31;9.00;1.40
18392;DHT22;9322;50.932;5.318;2024-01-25T11:27:58;9.20;1.40
18392;DHT22;9322;50.932;5.318;2024-01-25T11:30:25;9.50;1.40
18392;DHT22;9322;50.932;5.318;2024-01-25T11:32:51;9.70;1.40
18392;DHT22;9322;50.932;5.318;2024-01-25T11:35:17;9.60;1.40
18392;DHT22;9322;50.932;5.318;2024-01-25T11:37:46;9.90;1.40
18392;DHT22;9322;50.932;5.318;2024-01-25T11:40:13;10.10;1.40
18392;DHT22;9322;50.932;5.318;2024-01-25T11:42:40;10.40;1.40
18392;DHT22;9322;50.932;5.318;2024-01-25T11:45:09;10.50;1.40
18392;DHT22;9322;50.932;5.318;2024-01-25T11:47:39;10.50;1.40
18392;DHT22;9322;50.932;5.318;2024-01-25T11:50:08;9.80;1.40
18392;DHT22;9322;50.932;5.318;2024-01-25T11:52:35;9.80;1.40
18392;DHT22;9322;50.932;5.318;2024-01-25T11:55:07;10.10;1.40
18392;DHT22;9322;50.932;5.318;2024-01-25T11:57:36;10.20;1.40
18392;DHT22;9322;50.932;5.318;2024-01-25T12:00:04;10.40;1.40
18392;DHT22;9322;50.932;5.318;2024-01-25T12:02:31;10.50;1.40
18392;DHT22;9322;50.932;5.318;2024-01-25T12:04:57;10.50;1.40
18392;DHT22;9322;50.932;5.318;2024-01-25T12:07:23;10.70;1.40
18392;DHT22;9322;50.932;5.318;2024-01-25T12:12:24;10.40;1.40
18392;DHT22;9322;50.932;5.318;2024-01-25T12:14:50;10.50;1.40
18392;DHT22;9322;50.932;5.318;2024-01-25T12:17:17;10.50;1.40
18392;DHT22;9322;50.932;5.318;2024-01-25T12:19:43;10.40;1.40
18392;DHT22;9322;50.932;5.318;2024-01-25T12:22:09;10.50;1.40
18392;DHT22;9322;50.932;5.318;2024-01-25T12:24:35;10.60;1.40
18392;DHT22;9322;50.932;5.318;2024-01-25T12:27:01;10.60;1.40
18392;DHT22;9322;50.932;5.318;2024-01-25T12:29:27;10.40;1.40
18392;DHT22;9322;50.932;5.318;2024-01-25T12:31:53;10.50;1.40
18392;DHT22;9322;50.932;5.318;2024-01-25T12:34:18;10.50;1.40
18392;DHT22;9322;50.932;5.318;2024-01-25T12:36:44;10.50;1.40
18392;DHT22;9322;50.932;5.318;2024-01-25T12:39:10;10.50;1.40
18392;DHT22;9322;50.932;5.318;2024-01-25T12:41:36;10.70;1.40
18392;DHT22;9322;50.932;5.318;2024-01-25T12:44:03;10.80;1.40
18392;DHT22;9322;50.932;5.318;2024-01-25T12:46:29;10.70;1.40
18392;DHT22;9322;50.932;5.318;2024-01-25T12:48:55;10.60;1.40
18392;DHT22;9322;50.932;5.318;2024-01-25T12:51:22;10.50;1.40
18392;DHT22;9322;50.932;5.318;2024-01-25T12:53:49;10.50;1.40
18392;DHT22;9322;50.932;5.318;2024-01-25T12:56:15;10.50;1.40
18392;DHT22;9322;50.932;5.318;2024-01-25T12:58:40;10.50;1.40
18392;DHT22;9322;50.932;5.318;2024-01-25T13:01:06;10.40;1.40
18392;DHT22;9322;50.932;5.318;2024-01-25T13:03:32;10.40;1.40
18392;DHT22;9322;50.932;5.318;2024-01-25T13:05:58;10.40;1.40
18392;DHT22;9322;50.932;5.318;2024-01-25T13:08:23;10.20;1.40
18392;DHT22;9322;50.932;5.318;2024-01-25T13:10:49;10.00;1.40
18392;DHT22;9322;50.932;5.318;2024-01-25T13:13:15;10.10;1.40
18392;DHT22;9322;50.932;5.318;2024-01-25T13:15:40;10.00;1.40
18392;DHT22;9322;50.932;5.318;2024-01-25T13:18:06;10.10;1.40
18392;DHT22;9322;50.932;5.318;2024-01-25T13:20:32;9.90;1.40
18392;DHT22;9322;50.932;5.318;2024-01-25T13:22:57;10.00;1.40
18392;DHT22;9322;50.932;5.318;2024-01-25T13:25:23;9.80;1.40
18392;DHT22;9322;50.932;5.318;2024-01-25T13:27:49;9.70;1.40
18392;DHT22;9322;50.932;5.318;2024-01-25T13:30:14;9.70;1.40
18392;DHT22;9322;50.932;5.318;2024-01-25T13:32:40;9.60;1.40
18392;DHT22;9322;50.932;5.318;2024-01-25T13:35:06;9.50;1.40
18392;DHT22;9322;50.932;5.318;2024-01-25T13:37:32;9.60;1.40
18392;DHT22;9322;50.932;5.318;2024-01-25T13:39:58;9.50;1.40
18392;DHT22;9322;50.932;5.318;2024-01-25T13:42:24;9.60;1.40
18392;DHT22;9322;50.932;5.318;2024-01-25T13:44:49;9.70;1.40
18392;DHT22;9322;50.932;5.318;2024-01-25T13:47:15;9.50;1.40
18392;DHT22;9322;50.932;5.318;2024-01-25T13:49:41;9.50;1.40
18392;DHT22;9322;50.932;5.318;2024-01-25T13:52:06;9.60;1.40
18392;DHT22;9322;50.932;5.318;2024-01-25T13:54:32;9.60;1.40
18392;DHT22;9322;50.932;5.318;2024-01-25T13:56:58;9.60;1.40
18392;DHT22;9322;50.932;5.318;2024-01-25T13:59:24;9.60;1.40
18392;DHT22;9322;50.932;5.318;2024-01-25T14:01:51;9.60;1.40
18392;DHT22;9322;50.932;5.318;2024-01-25T14:04:17;9.80;1.40
18392;DHT22;9322;50.932;5.318;2024-01-25T14:06:43;9.80;1.40
18392;DHT22;9322;50.932;5.318;2024-01-25T14:09:09;9.80;1.40
18392;DHT22;9322;50.932;5.318;2024-01-25T14:11:35;9.80;1.40
18392;DHT22;9322;50.932;5.318;2024-01-25T14:14:00;9.70;1.40
18392;DHT22;9322;50.932;5.318;2024-01-25T14:16:26;9.80;1.40
18392;DHT22;9322;50.932;5.318;2024-01-25T14:18:52;9.70;1.40
18392;DHT22;9322;50.932;5.318;2024-01-25T14:21:17;9.80;1.40
18392;DHT22;9322;50.932;5.318;2024-01-25T14:23:46;9.80;1.40
18392;DHT22;9322;50.932;5.318;2024-01-25T14:26:12;9.80;1.40
18392;DHT22;9322;50.932;5.318;2024-01-25T14:28:38;9.60;1.40
18392;DHT22;9322;50.932;5.318;2024-01-25T14:31:03;9.60;1.40
18392;DHT22;9322;50.932;5.318;2024-01-25T14:33:29;9.60;1.40
18392;DHT22;9322;50.932;5.318;2024-01-25T14:35:55;9.60;1.40
18392;DHT22;9322;50.932;5.318;2024-01-25T14:38:20;9.70;1.40
18392;DHT22;9322;50.932;5.318;2024-01-25T14:40:46;9.80;1.40
18392;DHT22;9322;50.932;5.318;2024-01-25T14:43:12;9.90;1.40
18392;DHT22;9322;50.932;5.318;2024-01-25T14:45:37;9.80;1.40
18392;DHT22;9322;50.932;5.318;2024-01-25T14:48:04;9.90;1.40
18392;DHT22;9322;50.932;5.318;2024-01-25T14:50:30;9.90;1.40
18392;DHT22;9322;50.932;5.318;2024-01-25T14:52:58;9.80;1.40
18392;DHT22;9322;50.932;5.318;2024-01-25T14:55:24;9.70;1.40
18392;DHT22;9322;50.932;5.318;2024-01-25T14:57:50;9.80;1.40
18392;DHT22;9322;50.932;5.318;2024-01-25T15:00:16;9.80;1.40
18392;DHT22;9322;50.932;5.318;2024-01-25T15:02:46;9.90;1.40
18392;DHT22;9322;50.932;5.318;2024-01-25T15:05:11;9.90;1.40
18392;DHT22;9322;50.932;5.318;2024-01-25T15:07:39;9.80;1.40
18392;DHT22;9322;50.932;5.318;2024-01-25T15:10:05;9.80;1.40
18392;DHT22;9322;50.932;5.318;2024-01-25T15:12:31;9.80;1.40
18392;DHT22;9322;50.932;5.318;2024-01-25T15:14:56;10.00;1.40
18392;DHT22;9322;50.932;5.318;2024-01-25T15:17:22;9.90;1.40
18392;DHT22;9322;50.932;5.318;2024-01-25T15:19:48;10.00;1.40
18392;DHT22;9322;50.932;5.318;2024-01-25T15:22:14;10.00;1.40
18392;DHT22;9322;50.932;5.318;2024-01-25T15:24:40;10.00;1.40
18392;DHT22;9322;50.932;5.318;2024-01-25T15:27:06;10.00;1.40
18392;DHT22;9322;50.932;5.318;2024-01-25T15:29:32;10.00;1.40
18392;DHT22;9322;50.932;5.318;2024-01-25T15:31:57;10.10;1.40
18392;DHT22;9322;50.932;5.318;2024-01-25T15:34:23;10.10;1.40
18392;DHT22;9322;50.932;5.318;2024-01-25T15:36:49;10.20;1.40
18392;DHT22;9322;50.932;5.318;2024-01-25T15:39:15;10.10;1.40
18392;DHT22;9322;50.932;5.318;2024-01-25T15:41:43;10.10;1.40
18392;DHT22;9322;50.932;5.318;2024-01-25T15:44:09;10.10;1.40
18392;DHT22;9322;50.932;5.318;2024-01-25T15:46:35;10.10;1.40
18392;DHT22;9322;50.932;5.318;2024-01-25T15:49:00;10.20;1.40
18392;DHT22;9322;50.932;5.318;2024-01-25T15:51:27;10.10;1.40
18392;DHT22;9322;50.932;5.318;2024-01-25T15:53:52;10.00;1.40
18392;DHT22;9322;50.932;5.318;2024-01-25T15:56:18;10.00;1.40
18392;DHT22;9322;50.932;5.318;2024-01-25T15:58:44;10.10;1.40
18392;DHT22;9322;50.932;5.318;2024-01-25T16:01:09;10.10;1.40
18392;DHT22;9322;50.932;5.318;2024-01-25T16:03:35;10.10;1.40
18392;DHT22;9322;50.932;5.318;2024-01-25T16:06:01;10.00;1.40
18392;DHT22;9322;50.932;5.318;2024-01-25T16:08:29;10.10;1.40
18392;DHT22;9322;50.932;5.318;2024-01-25T16:10:55;10.10;1.40